sensor_id;sensor_type;location;lat;lon;timestamp;P1;durP1;ratioP1;P2;durP2;ratioP2
36653;SDS011;22650;49.350;20.898;2023-02-17T00:02:29;65.57;;;21.50;;
36653;SDS011;22650;49.350;20.898;2023-02-17T00:05:05;61.30;;;21.77;;
36653;SDS011;22650;49.350;20.898;2023-02-17T00:07:39;53.05;;;21.67;;
36653;SDS011;22650;49.350;20.898;2023-02-17T00:10:12;58.75;;;21.95;;
36653;SDS011;22650;49.350;20.898;2023-02-17T00:12:46;60.80;;;23.23;;
36653;SDS011;22650;49.350;20.898;2023-02-17T00:15:20;66.55;;;21.70;;
36653;SDS011;22650;49.350;20.898;2023-02-17T00:17:53;59.50;;;21.88;;
36653;SDS011;22650;49.350;20.898;2023-02-17T00:20:29;67.10;;;20.77;;
36653;SDS011;22650;49.350;20.898;2023-02-17T00:23:02;69.05;;;22.55;;
36653;SDS011;22650;49.350;20.898;2023-02-17T00:25:36;59.40;;;21.42;;
36653;SDS011;22650;49.350;20.898;2023-02-17T00:28:09;58.38;;;20.98;;
36653;SDS011;22650;49.350;20.898;2023-02-17T00:30:43;59.85;;;19.73;;
36653;SDS011;22650;49.350;20.898;2023-02-17T00:33:16;62.03;;;21.38;;
36653;SDS011;22650;49.350;20.898;2023-02-17T00:35:51;56.63;;;22.25;;
36653;SDS011;22650;49.350;20.898;2023-02-17T00:38:25;56.53;;;20.85;;
36653;SDS011;22650;49.350;20.898;2023-02-17T00:41:00;54.75;;;20.63;;
36653;SDS011;22650;49.350;20.898;2023-02-17T00:43:34;63.50;;;22.40;;
36653;SDS011;22650;49.350;20.898;2023-02-17T00:46:08;61.65;;;22.88;;
36653;SDS011;22650;49.350;20.898;2023-02-17T00:48:42;61.38;;;20.60;;
36653;SDS011;22650;49.350;20.898;2023-02-17T00:51:17;59.22;;;19.70;;
36653;SDS011;22650;49.350;20.898;2023-02-17T00:53:51;60.17;;;21.45;;
36653;SDS011;22650;49.350;20.898;2023-02-17T00:56:24;60.78;;;18.70;;
36653;SDS011;22650;49.350;20.898;2023-02-17T00:58:58;55.45;;;21.25;;
36653;SDS011;22650;49.350;20.898;2023-02-17T01:01:32;54.08;;;18.55;;
36653;SDS011;22650;49.350;20.898;2023-02-17T01:04:06;56.60;;;20.90;;
36653;SDS011;22650;49.350;20.898;2023-02-17T01:06:41;55.42;;;20.60;;
36653;SDS011;22650;49.350;20.898;2023-02-17T01:09:15;59.60;;;21.48;;
36653;SDS011;22650;49.350;20.898;2023-02-17T01:11:48;55.05;;;19.80;;
36653;SDS011;22650;49.350;20.898;2023-02-17T01:14:22;57.72;;;18.70;;
36653;SDS011;22650;49.350;20.898;2023-02-17T01:16:59;52.78;;;19.33;;
36653;SDS011;22650;49.350;20.898;2023-02-17T01:19:33;43.95;;;16.23;;
36653;SDS011;22650;49.350;20.898;2023-02-17T01:22:08;47.83;;;19.15;;
36653;SDS011;22650;49.350;20.898;2023-02-17T01:24:41;47.17;;;18.30;;
36653;SDS011;22650;49.350;20.898;2023-02-17T01:27:16;58.42;;;21.30;;
36653;SDS011;22650;49.350;20.898;2023-02-17T01:29:51;50.15;;;18.05;;
36653;SDS011;22650;49.350;20.898;2023-02-17T01:32:24;50.08;;;17.38;;
36653;SDS011;22650;49.350;20.898;2023-02-17T01:34:58;61.78;;;19.75;;
36653;SDS011;22650;49.350;20.898;2023-02-17T01:37:33;51.97;;;16.55;;
36653;SDS011;22650;49.350;20.898;2023-02-17T01:40:07;58.45;;;20.25;;
36653;SDS011;22650;49.350;20.898;2023-02-17T01:42:41;44.97;;;17.65;;
36653;SDS011;22650;49.350;20.898;2023-02-17T01:45:30;50.72;;;19.02;;
36653;SDS011;22650;49.350;20.898;2023-02-17T01:48:14;57.13;;;20.73;;
36653;SDS011;22650;49.350;20.898;2023-02-17T01:50:52;55.67;;;19.08;;
36653;SDS011;22650;49.350;20.898;2023-02-17T01:53:29;43.72;;;16.90;;
36653;SDS011;22650;49.350;20.898;2023-02-17T01:56:07;43.92;;;17.55;;
36653;SDS011;22650;49.350;20.898;2023-02-17T01:58:43;46.30;;;17.05;;
36653;SDS011;22650;49.350;20.898;2023-02-17T02:01:18;48.70;;;17.60;;
36653;SDS011;22650;49.350;20.898;2023-02-17T02:03:53;45.97;;;16.23;;
36653;SDS011;22650;49.350;20.898;2023-02-17T02:06:27;49.72;;;19.08;;
36653;SDS011;22650;49.350;20.898;2023-02-17T02:09:04;51.00;;;19.20;;
36653;SDS011;22650;49.350;20.898;2023-02-17T02:11:40;58.22;;;20.58;;
36653;SDS011;22650;49.350;20.898;2023-02-17T02:14:14;50.60;;;18.27;;
36653;SDS011;22650;49.350;20.898;2023-02-17T02:16:50;44.55;;;17.52;;
36653;SDS011;22650;49.350;20.898;2023-02-17T02:19:41;51.63;;;18.70;;
36653;SDS011;22650;49.350;20.898;2023-02-17T02:26:14;48.33;;;16.48;;
36653;SDS011;22650;49.350;20.898;2023-02-17T02:29:19;46.97;;;18.63;;
36653;SDS011;22650;49.350;20.898;2023-02-17T02:32:17;49.83;;;17.80;;
36653;SDS011;22650;49.350;20.898;2023-02-17T02:35:05;48.05;;;18.70;;
36653;SDS011;22650;49.350;20.898;2023-02-17T02:37:45;43.72;;;17.75;;
36653;SDS011;22650;49.350;20.898;2023-02-17T02:40:22;41.38;;;17.00;;
36653;SDS011;22650;49.350;20.898;2023-02-17T02:42:59;52.97;;;16.52;;
36653;SDS011;22650;49.350;20.898;2023-02-17T02:45:35;47.70;;;18.42;;
36653;SDS011;22650;49.350;20.898;2023-02-17T02:48:10;50.00;;;17.77;;
36653;SDS011;22650;49.350;20.898;2023-02-17T02:50:58;59.95;;;18.73;;
36653;SDS011;22650;49.350;20.898;2023-02-17T02:57:01;53.85;;;20.13;;
36653;SDS011;22650;49.350;20.898;2023-02-17T02:59:50;53.83;;;18.13;;
36653;SDS011;22650;49.350;20.898;2023-02-17T03:02:34;54.42;;;19.58;;
36653;SDS011;22650;49.350;20.898;2023-02-17T03:05:16;50.83;;;16.35;;
36653;SDS011;22650;49.350;20.898;2023-02-17T03:07:58;53.63;;;18.00;;
36653;SDS011;22650;49.350;20.898;2023-02-17T03:10:34;44.78;;;17.80;;
36653;SDS011;22650;49.350;20.898;2023-02-17T03:13:15;46.65;;;16.75;;
36653;SDS011;22650;49.350;20.898;2023-02-17T03:15:49;43.17;;;15.80;;
36653;SDS011;22650;49.350;20.898;2023-02-17T03:18:23;46.97;;;17.45;;
36653;SDS011;22650;49.350;20.898;2023-02-17T03:21:00;45.90;;;16.50;;
36653;SDS011;22650;49.350;20.898;2023-02-17T03:23:37;43.80;;;15.27;;
36653;SDS011;22650;49.350;20.898;2023-02-17T03:26:10;39.83;;;15.00;;
36653;SDS011;22650;49.350;20.898;2023-02-17T03:28:44;36.00;;;14.32;;
36653;SDS011;22650;49.350;20.898;2023-02-17T03:31:18;40.55;;;15.40;;
36653;SDS011;22650;49.350;20.898;2023-02-17T03:33:51;36.38;;;13.68;;
36653;SDS011;22650;49.350;20.898;2023-02-17T03:36:26;38.67;;;15.13;;
36653;SDS011;22650;49.350;20.898;2023-02-17T03:39:00;53.65;;;15.48;;
36653;SDS011;22650;49.350;20.898;2023-02-17T03:41:34;46.17;;;14.13;;
36653;SDS011;22650;49.350;20.898;2023-02-17T03:44:07;34.00;;;14.52;;
36653;SDS011;22650;49.350;20.898;2023-02-17T03:46:41;43.67;;;16.02;;
36653;SDS011;22650;49.350;20.898;2023-02-17T03:49:15;43.10;;;15.85;;
36653;SDS011;22650;49.350;20.898;2023-02-17T03:51:49;37.25;;;15.32;;
36653;SDS011;22650;49.350;20.898;2023-02-17T03:54:23;41.22;;;14.30;;
36653;SDS011;22650;49.350;20.898;2023-02-17T03:56:57;38.83;;;14.43;;
36653;SDS011;22650;49.350;20.898;2023-02-17T03:59:31;45.83;;;15.55;;
36653;SDS011;22650;49.350;20.898;2023-02-17T04:02:05;40.92;;;15.50;;
36653;SDS011;22650;49.350;20.898;2023-02-17T04:04:38;39.35;;;14.43;;
36653;SDS011;22650;49.350;20.898;2023-02-17T04:07:13;43.05;;;15.25;;
36653;SDS011;22650;49.350;20.898;2023-02-17T04:09:47;35.30;;;14.98;;
36653;SDS011;22650;49.350;20.898;2023-02-17T04:12:20;49.08;;;15.40;;
36653;SDS011;22650;49.350;20.898;2023-02-17T04:14:54;36.58;;;12.95;;
36653;SDS011;22650;49.350;20.898;2023-02-17T04:17:28;38.10;;;13.60;;
36653;SDS011;22650;49.350;20.898;2023-02-17T04:20:03;42.88;;;15.57;;
36653;SDS011;22650;49.350;20.898;2023-02-17T04:22:40;34.20;;;13.95;;
36653;SDS011;22650;49.350;20.898;2023-02-17T04:25:13;36.45;;;14.27;;
36653;SDS011;22650;49.350;20.898;2023-02-17T04:27:47;40.70;;;13.80;;
36653;SDS011;22650;49.350;20.898;2023-02-17T04:30:20;40.60;;;14.93;;
36653;SDS011;22650;49.350;20.898;2023-02-17T04:32:54;33.85;;;13.35;;
36653;SDS011;22650;49.350;20.898;2023-02-17T04:35:27;38.05;;;14.45;;
36653;SDS011;22650;49.350;20.898;2023-02-17T04:38:03;43.95;;;14.95;;
36653;SDS011;22650;49.350;20.898;2023-02-17T04:40:36;41.88;;;15.57;;
36653;SDS011;22650;49.350;20.898;2023-02-17T04:43:10;48.17;;;14.55;;
36653;SDS011;22650;49.350;20.898;2023-02-17T04:45:44;40.47;;;14.38;;
36653;SDS011;22650;49.350;20.898;2023-02-17T04:48:17;43.55;;;15.35;;
36653;SDS011;22650;49.350;20.898;2023-02-17T04:50:51;35.33;;;13.68;;
36653;SDS011;22650;49.350;20.898;2023-02-17T04:53:26;34.38;;;14.45;;
36653;SDS011;22650;49.350;20.898;2023-02-17T04:55:59;40.30;;;15.55;;
36653;SDS011;22650;49.350;20.898;2023-02-17T04:58:33;42.17;;;14.13;;
36653;SDS011;22650;49.350;20.898;2023-02-17T05:01:07;35.15;;;15.05;;
36653;SDS011;22650;49.350;20.898;2023-02-17T05:03:40;36.97;;;14.02;;
36653;SDS011;22650;49.350;20.898;2023-02-17T05:06:14;40.72;;;14.20;;
36653;SDS011;22650;49.350;20.898;2023-02-17T05:08:49;38.67;;;14.25;;
36653;SDS011;22650;49.350;20.898;2023-02-17T05:11:24;37.97;;;15.02;;
36653;SDS011;22650;49.350;20.898;2023-02-17T05:13:57;41.75;;;14.50;;
36653;SDS011;22650;49.350;20.898;2023-02-17T05:16:31;42.55;;;15.68;;
36653;SDS011;22650;49.350;20.898;2023-02-17T05:19:04;39.00;;;14.75;;
36653;SDS011;22650;49.350;20.898;2023-02-17T05:21:38;42.28;;;15.50;;
36653;SDS011;22650;49.350;20.898;2023-02-17T05:24:13;39.70;;;16.17;;
36653;SDS011;22650;49.350;20.898;2023-02-17T05:26:46;47.80;;;16.77;;
36653;SDS011;22650;49.350;20.898;2023-02-17T05:29:20;43.83;;;16.08;;
36653;SDS011;22650;49.350;20.898;2023-02-17T05:31:54;41.63;;;14.77;;
36653;SDS011;22650;49.350;20.898;2023-02-17T05:34:28;37.83;;;15.20;;
36653;SDS011;22650;49.350;20.898;2023-02-17T05:37:02;43.08;;;16.42;;
36653;SDS011;22650;49.350;20.898;2023-02-17T05:39:37;46.40;;;16.52;;
36653;SDS011;22650;49.350;20.898;2023-02-17T05:42:11;45.83;;;15.75;;
36653;SDS011;22650;49.350;20.898;2023-02-17T05:44:44;38.20;;;15.25;;
36653;SDS011;22650;49.350;20.898;2023-02-17T05:47:18;39.53;;;14.75;;
36653;SDS011;22650;49.350;20.898;2023-02-17T05:49:51;35.03;;;14.40;;
36653;SDS011;22650;49.350;20.898;2023-02-17T05:52:25;41.17;;;16.00;;
36653;SDS011;22650;49.350;20.898;2023-02-17T05:55:00;31.15;;;13.35;;
36653;SDS011;22650;49.350;20.898;2023-02-17T05:57:35;35.05;;;15.00;;
36653;SDS011;22650;49.350;20.898;2023-02-17T06:00:09;34.38;;;13.90;;
36653;SDS011;22650;49.350;20.898;2023-02-17T06:02:43;39.03;;;16.38;;
36653;SDS011;22650;49.350;20.898;2023-02-17T06:05:17;36.70;;;14.60;;
36653;SDS011;22650;49.350;20.898;2023-02-17T06:07:51;46.78;;;15.43;;
36653;SDS011;22650;49.350;20.898;2023-02-17T06:10:25;38.35;;;16.58;;
36653;SDS011;22650;49.350;20.898;2023-02-17T06:12:59;41.20;;;15.55;;
36653;SDS011;22650;49.350;20.898;2023-02-17T06:15:33;47.85;;;16.40;;
36653;SDS011;22650;49.350;20.898;2023-02-17T06:18:06;46.00;;;18.00;;
36653;SDS011;22650;49.350;20.898;2023-02-17T06:20:40;37.33;;;15.60;;
36653;SDS011;22650;49.350;20.898;2023-02-17T06:23:13;48.47;;;17.33;;
36653;SDS011;22650;49.350;20.898;2023-02-17T06:25:48;45.78;;;16.70;;
36653;SDS011;22650;49.350;20.898;2023-02-17T06:28:22;42.80;;;18.02;;
36653;SDS011;22650;49.350;20.898;2023-02-17T06:30:56;44.92;;;17.73;;
36653;SDS011;22650;49.350;20.898;2023-02-17T06:33:29;44.78;;;18.20;;
36653;SDS011;22650;49.350;20.898;2023-02-17T06:36:03;44.55;;;17.33;;
36653;SDS011;22650;49.350;20.898;2023-02-17T06:38:37;35.83;;;14.90;;
36653;SDS011;22650;49.350;20.898;2023-02-17T06:41:12;36.58;;;15.20;;
36653;SDS011;22650;49.350;20.898;2023-02-17T06:43:46;39.60;;;15.20;;
36653;SDS011;22650;49.350;20.898;2023-02-17T06:46:19;38.47;;;14.40;;
36653;SDS011;22650;49.350;20.898;2023-02-17T06:48:53;38.53;;;15.10;;
36653;SDS011;22650;49.350;20.898;2023-02-17T06:51:27;37.45;;;15.27;;
36653;SDS011;22650;49.350;20.898;2023-02-17T06:54:00;47.75;;;16.77;;
36653;SDS011;22650;49.350;20.898;2023-02-17T06:56:35;48.67;;;18.85;;
36653;SDS011;22650;49.350;20.898;2023-02-17T06:59:09;45.22;;;18.17;;
36653;SDS011;22650;49.350;20.898;2023-02-17T07:01:43;41.40;;;18.88;;
36653;SDS011;22650;49.350;20.898;2023-02-17T07:04:20;100.55;;;38.17;;
36653;SDS011;22650;49.350;20.898;2023-02-17T07:06:53;58.05;;;23.20;;
36653;SDS011;22650;49.350;20.898;2023-02-17T07:09:27;57.38;;;22.63;;
36653;SDS011;22650;49.350;20.898;2023-02-17T07:12:02;51.28;;;19.90;;
36653;SDS011;22650;49.350;20.898;2023-02-17T07:14:39;48.95;;;18.25;;
36653;SDS011;22650;49.350;20.898;2023-02-17T07:17:13;44.83;;;18.35;;
36653;SDS011;22650;49.350;20.898;2023-02-17T07:19:46;44.55;;;18.52;;
36653;SDS011;22650;49.350;20.898;2023-02-17T07:22:26;49.20;;;19.42;;
36653;SDS011;22650;49.350;20.898;2023-02-17T07:25:00;40.92;;;18.75;;
36653;SDS011;22650;49.350;20.898;2023-02-17T07:27:35;43.03;;;20.23;;
36653;SDS011;22650;49.350;20.898;2023-02-17T07:30:09;50.58;;;19.00;;
36653;SDS011;22650;49.350;20.898;2023-02-17T07:32:43;44.72;;;19.90;;
36653;SDS011;22650;49.350;20.898;2023-02-17T07:35:17;48.53;;;18.70;;
36653;SDS011;22650;49.350;20.898;2023-02-17T07:37:50;46.50;;;18.02;;
36653;SDS011;22650;49.350;20.898;2023-02-17T07:40:24;43.45;;;18.15;;
36653;SDS011;22650;49.350;20.898;2023-02-17T07:43:00;52.70;;;17.02;;
36653;SDS011;22650;49.350;20.898;2023-02-17T07:45:34;43.58;;;16.90;;
36653;SDS011;22650;49.350;20.898;2023-02-17T07:48:08;40.55;;;17.05;;
36653;SDS011;22650;49.350;20.898;2023-02-17T07:50:41;40.88;;;16.10;;
36653;SDS011;22650;49.350;20.898;2023-02-17T07:53:15;39.13;;;15.45;;
36653;SDS011;22650;49.350;20.898;2023-02-17T07:55:49;43.22;;;17.33;;
36653;SDS011;22650;49.350;20.898;2023-02-17T07:58:24;35.95;;;15.88;;
36653;SDS011;22650;49.350;20.898;2023-02-17T08:00:57;36.88;;;14.48;;
36653;SDS011;22650;49.350;20.898;2023-02-17T08:03:36;35.55;;;14.98;;
36653;SDS011;22650;49.350;20.898;2023-02-17T08:06:10;41.03;;;15.75;;
36653;SDS011;22650;49.350;20.898;2023-02-17T08:08:45;54.35;;;20.50;;
36653;SDS011;22650;49.350;20.898;2023-02-17T08:11:37;39.08;;;14.38;;
36653;SDS011;22650;49.350;20.898;2023-02-17T08:14:30;38.17;;;16.13;;
36653;SDS011;22650;49.350;20.898;2023-02-17T08:17:04;39.67;;;14.93;;
36653;SDS011;22650;49.350;20.898;2023-02-17T08:19:38;37.88;;;16.08;;
36653;SDS011;22650;49.350;20.898;2023-02-17T08:22:19;37.55;;;15.05;;
36653;SDS011;22650;49.350;20.898;2023-02-17T08:24:53;34.55;;;14.25;;
36653;SDS011;22650;49.350;20.898;2023-02-17T08:27:26;40.08;;;15.18;;
36653;SDS011;22650;49.350;20.898;2023-02-17T08:30:01;32.80;;;13.95;;
36653;SDS011;22650;49.350;20.898;2023-02-17T08:32:37;33.97;;;13.18;;
36653;SDS011;22650;49.350;20.898;2023-02-17T08:35:11;36.40;;;14.32;;
36653;SDS011;22650;49.350;20.898;2023-02-17T08:37:44;37.05;;;14.32;;
36653;SDS011;22650;49.350;20.898;2023-02-17T08:40:18;42.15;;;15.32;;
36653;SDS011;22650;49.350;20.898;2023-02-17T08:42:51;34.35;;;15.18;;
36653;SDS011;22650;49.350;20.898;2023-02-17T08:45:26;35.63;;;14.35;;
36653;SDS011;22650;49.350;20.898;2023-02-17T08:48:01;37.35;;;14.05;;
36653;SDS011;22650;49.350;20.898;2023-02-17T08:50:35;36.13;;;14.32;;
36653;SDS011;22650;49.350;20.898;2023-02-17T08:53:08;37.13;;;15.90;;
36653;SDS011;22650;49.350;20.898;2023-02-17T08:55:42;34.28;;;14.80;;
36653;SDS011;22650;49.350;20.898;2023-02-17T08:58:20;35.95;;;15.98;;
36653;SDS011;22650;49.350;20.898;2023-02-17T09:00:55;31.75;;;12.30;;
36653;SDS011;22650;49.350;20.898;2023-02-17T09:03:29;39.47;;;15.55;;
36653;SDS011;22650;49.350;20.898;2023-02-17T09:06:05;42.22;;;14.40;;
36653;SDS011;22650;49.350;20.898;2023-02-17T09:08:40;36.92;;;13.68;;
36653;SDS011;22650;49.350;20.898;2023-02-17T09:11:14;37.25;;;14.07;;
36653;SDS011;22650;49.350;20.898;2023-02-17T09:13:50;34.95;;;13.18;;
36653;SDS011;22650;49.350;20.898;2023-02-17T09:16:25;37.47;;;13.73;;
36653;SDS011;22650;49.350;20.898;2023-02-17T09:18:59;37.88;;;15.38;;
36653;SDS011;22650;49.350;20.898;2023-02-17T09:21:32;30.70;;;12.95;;
36653;SDS011;22650;49.350;20.898;2023-02-17T09:24:06;34.85;;;14.13;;
36653;SDS011;22650;49.350;20.898;2023-02-17T09:26:40;30.17;;;14.63;;
36653;SDS011;22650;49.350;20.898;2023-02-17T09:29:14;29.27;;;12.88;;
36653;SDS011;22650;49.350;20.898;2023-02-17T09:31:49;34.28;;;14.48;;
36653;SDS011;22650;49.350;20.898;2023-02-17T09:34:22;33.10;;;14.95;;
36653;SDS011;22650;49.350;20.898;2023-02-17T09:36:56;29.55;;;13.35;;
36653;SDS011;22650;49.350;20.898;2023-02-17T09:39:29;26.42;;;13.43;;
36653;SDS011;22650;49.350;20.898;2023-02-17T09:42:03;39.30;;;12.82;;
36653;SDS011;22650;49.350;20.898;2023-02-17T09:44:38;29.15;;;12.23;;
36653;SDS011;22650;49.350;20.898;2023-02-17T09:47:16;38.88;;;16.20;;
36653;SDS011;22650;49.350;20.898;2023-02-17T09:49:55;37.13;;;14.45;;
36653;SDS011;22650;49.350;20.898;2023-02-17T09:52:35;32.70;;;14.40;;
36653;SDS011;22650;49.350;20.898;2023-02-17T09:55:13;30.35;;;14.50;;
36653;SDS011;22650;49.350;20.898;2023-02-17T09:57:52;29.60;;;13.35;;
36653;SDS011;22650;49.350;20.898;2023-02-17T10:00:31;40.83;;;14.95;;
36653;SDS011;22650;49.350;20.898;2023-02-17T10:03:12;34.75;;;14.77;;
36653;SDS011;22650;49.350;20.898;2023-02-17T10:05:52;28.08;;;12.32;;
36653;SDS011;22650;49.350;20.898;2023-02-17T10:08:29;35.03;;;13.35;;
36653;SDS011;22650;49.350;20.898;2023-02-17T10:11:09;30.17;;;12.43;;
36653;SDS011;22650;49.350;20.898;2023-02-17T10:13:50;32.60;;;14.02;;
36653;SDS011;22650;49.350;20.898;2023-02-17T10:16:27;35.97;;;15.52;;
36653;SDS011;22650;49.350;20.898;2023-02-17T10:19:07;30.35;;;12.60;;
36653;SDS011;22650;49.350;20.898;2023-02-17T10:21:45;33.25;;;14.07;;
36653;SDS011;22650;49.350;20.898;2023-02-17T10:24:23;32.42;;;13.85;;
36653;SDS011;22650;49.350;20.898;2023-02-17T10:26:59;30.75;;;14.10;;
36653;SDS011;22650;49.350;20.898;2023-02-17T10:29:43;39.90;;;14.45;;
36653;SDS011;22650;49.350;20.898;2023-02-17T10:32:23;46.63;;;18.30;;
36653;SDS011;22650;49.350;20.898;2023-02-17T10:35:06;40.00;;;15.73;;
36653;SDS011;22650;49.350;20.898;2023-02-17T10:37:46;41.70;;;17.02;;
36653;SDS011;22650;49.350;20.898;2023-02-17T10:40:22;36.80;;;17.30;;
36653;SDS011;22650;49.350;20.898;2023-02-17T10:42:58;39.83;;;17.80;;
36653;SDS011;22650;49.350;20.898;2023-02-17T10:45:39;48.03;;;21.08;;
36653;SDS011;22650;49.350;20.898;2023-02-17T10:48:17;38.42;;;18.17;;
36653;SDS011;22650;49.350;20.898;2023-02-17T10:50:54;54.88;;;21.02;;
36653;SDS011;22650;49.350;20.898;2023-02-17T10:53:30;61.85;;;22.55;;
36653;SDS011;22650;49.350;20.898;2023-02-17T10:56:07;53.75;;;21.08;;
36653;SDS011;22650;49.350;20.898;2023-02-17T10:58:47;53.28;;;21.42;;
36653;SDS011;22650;49.350;20.898;2023-02-17T11:01:26;44.17;;;17.98;;
36653;SDS011;22650;49.350;20.898;2023-02-17T11:04:01;38.72;;;18.48;;
36653;SDS011;22650;49.350;20.898;2023-02-17T11:06:41;74.82;;;24.70;;
36653;SDS011;22650;49.350;20.898;2023-02-17T11:09:17;51.03;;;20.17;;
36653;SDS011;22650;49.350;20.898;2023-02-17T11:11:56;50.00;;;19.33;;
36653;SDS011;22650;49.350;20.898;2023-02-17T11:14:32;48.28;;;19.90;;
36653;SDS011;22650;49.350;20.898;2023-02-17T11:17:12;79.07;;;28.23;;
36653;SDS011;22650;49.350;20.898;2023-02-17T11:19:55;54.97;;;23.00;;
36653;SDS011;22650;49.350;20.898;2023-02-17T11:22:35;68.45;;;24.27;;
36653;SDS011;22650;49.350;20.898;2023-02-17T11:25:19;80.28;;;31.38;;
36653;SDS011;22650;49.350;20.898;2023-02-17T11:27:55;55.15;;;25.00;;
36653;SDS011;22650;49.350;20.898;2023-02-17T11:30:31;45.47;;;21.58;;
36653;SDS011;22650;49.350;20.898;2023-02-17T11:33:10;56.67;;;22.65;;
36653;SDS011;22650;49.350;20.898;2023-02-17T11:35:47;66.28;;;26.33;;
36653;SDS011;22650;49.350;20.898;2023-02-17T11:38:25;58.70;;;25.15;;
36653;SDS011;22650;49.350;20.898;2023-02-17T11:41:00;64.15;;;28.05;;
36653;SDS011;22650;49.350;20.898;2023-02-17T11:43:37;78.15;;;29.52;;
36653;SDS011;22650;49.350;20.898;2023-02-17T11:46:17;73.07;;;29.85;;
36653;SDS011;22650;49.350;20.898;2023-02-17T11:49:16;75.70;;;29.35;;
36653;SDS011;22650;49.350;20.898;2023-02-17T11:52:11;70.93;;;27.10;;
36653;SDS011;22650;49.350;20.898;2023-02-17T11:55:02;76.43;;;30.15;;
36653;SDS011;22650;49.350;20.898;2023-02-17T11:57:49;74.47;;;27.05;;
36653;SDS011;22650;49.350;20.898;2023-02-17T12:00:34;84.40;;;31.98;;
36653;SDS011;22650;49.350;20.898;2023-02-17T12:03:20;74.53;;;33.03;;
36653;SDS011;22650;49.350;20.898;2023-02-17T12:06:08;76.65;;;30.02;;
36653;SDS011;22650;49.350;20.898;2023-02-17T12:11:52;89.13;;;31.08;;
36653;SDS011;22650;49.350;20.898;2023-02-17T12:14:33;85.95;;;29.90;;
36653;SDS011;22650;49.350;20.898;2023-02-17T12:17:23;89.25;;;33.20;;
36653;SDS011;22650;49.350;20.898;2023-02-17T12:20:10;57.58;;;24.73;;
36653;SDS011;22650;49.350;20.898;2023-02-17T12:23:06;84.80;;;33.40;;
36653;SDS011;22650;49.350;20.898;2023-02-17T12:26:01;124.60;;;43.08;;
36653;SDS011;22650;49.350;20.898;2023-02-17T12:28:50;66.05;;;26.75;;
36653;SDS011;22650;49.350;20.898;2023-02-17T12:31:41;76.28;;;27.83;;
36653;SDS011;22650;49.350;20.898;2023-02-17T12:34:31;70.13;;;25.65;;
36653;SDS011;22650;49.350;20.898;2023-02-17T12:37:15;67.07;;;25.80;;
36653;SDS011;22650;49.350;20.898;2023-02-17T12:39:53;56.25;;;26.13;;
36653;SDS011;22650;49.350;20.898;2023-02-17T12:42:30;91.63;;;27.02;;
36653;SDS011;22650;49.350;20.898;2023-02-17T12:45:15;69.75;;;28.80;;
36653;SDS011;22650;49.350;20.898;2023-02-17T12:47:53;70.47;;;31.02;;
36653;SDS011;22650;49.350;20.898;2023-02-17T12:50:31;74.75;;;31.25;;
36653;SDS011;22650;49.350;20.898;2023-02-17T12:53:10;62.97;;;26.27;;
36653;SDS011;22650;49.350;20.898;2023-02-17T12:55:51;108.97;;;43.58;;
36653;SDS011;22650;49.350;20.898;2023-02-17T12:58:28;83.93;;;34.22;;
36653;SDS011;22650;49.350;20.898;2023-02-17T13:01:07;80.93;;;34.95;;
36653;SDS011;22650;49.350;20.898;2023-02-17T13:03:48;99.53;;;40.60;;
36653;SDS011;22650;49.350;20.898;2023-02-17T13:06:24;117.20;;;46.45;;
36653;SDS011;22650;49.350;20.898;2023-02-17T13:09:05;74.78;;;31.40;;
36653;SDS011;22650;49.350;20.898;2023-02-17T13:11:49;79.30;;;33.67;;
36653;SDS011;22650;49.350;20.898;2023-02-17T13:14:26;86.78;;;31.52;;
36653;SDS011;22650;49.350;20.898;2023-02-17T13:17:03;70.05;;;29.98;;
36653;SDS011;22650;49.350;20.898;2023-02-17T13:19:37;78.00;;;30.40;;
36653;SDS011;22650;49.350;20.898;2023-02-17T13:22:20;75.63;;;29.48;;
36653;SDS011;22650;49.350;20.898;2023-02-17T13:24:54;67.05;;;26.88;;
36653;SDS011;22650;49.350;20.898;2023-02-17T13:27:32;60.95;;;25.40;;
36653;SDS011;22650;49.350;20.898;2023-02-17T13:30:25;71.10;;;29.95;;
36653;SDS011;22650;49.350;20.898;2023-02-17T13:33:04;71.45;;;28.73;;
36653;SDS011;22650;49.350;20.898;2023-02-17T13:35:40;57.85;;;24.90;;
36653;SDS011;22650;49.350;20.898;2023-02-17T13:38:24;60.20;;;23.98;;
36653;SDS011;22650;49.350;20.898;2023-02-17T13:41:00;62.30;;;26.52;;
36653;SDS011;22650;49.350;20.898;2023-02-17T13:43:44;64.43;;;26.17;;
36653;SDS011;22650;49.350;20.898;2023-02-17T13:46:22;63.83;;;27.63;;
36653;SDS011;22650;49.350;20.898;2023-02-17T13:49:20;82.30;;;31.23;;
36653;SDS011;22650;49.350;20.898;2023-02-17T13:52:08;69.43;;;29.50;;
36653;SDS011;22650;49.350;20.898;2023-02-17T13:54:51;65.65;;;26.92;;
36653;SDS011;22650;49.350;20.898;2023-02-17T13:57:26;84.45;;;30.02;;
36653;SDS011;22650;49.350;20.898;2023-02-17T14:00:05;83.05;;;35.53;;
36653;SDS011;22650;49.350;20.898;2023-02-17T14:02:45;74.10;;;31.48;;
36653;SDS011;22650;49.350;20.898;2023-02-17T14:05:24;68.65;;;29.48;;
36653;SDS011;22650;49.350;20.898;2023-02-17T14:08:11;70.80;;;29.20;;
36653;SDS011;22650;49.350;20.898;2023-02-17T14:10:47;64.93;;;26.10;;
36653;SDS011;22650;49.350;20.898;2023-02-17T14:13:21;60.08;;;25.67;;
36653;SDS011;22650;49.350;20.898;2023-02-17T14:15:56;80.88;;;31.35;;
36653;SDS011;22650;49.350;20.898;2023-02-17T14:18:33;65.38;;;28.65;;
36653;SDS011;22650;49.350;20.898;2023-02-17T14:21:10;61.05;;;27.33;;
36653;SDS011;22650;49.350;20.898;2023-02-17T14:23:56;58.45;;;25.83;;
36653;SDS011;22650;49.350;20.898;2023-02-17T14:26:31;76.15;;;27.30;;
36653;SDS011;22650;49.350;20.898;2023-02-17T14:29:09;74.65;;;29.83;;
36653;SDS011;22650;49.350;20.898;2023-02-17T14:31:45;67.30;;;29.30;;
36653;SDS011;22650;49.350;20.898;2023-02-17T14:34:25;60.38;;;25.88;;
36653;SDS011;22650;49.350;20.898;2023-02-17T14:39:53;83.22;;;29.08;;
36653;SDS011;22650;49.350;20.898;2023-02-17T14:42:26;78.78;;;31.95;;
36653;SDS011;22650;49.350;20.898;2023-02-17T14:45:00;68.20;;;28.40;;
36653;SDS011;22650;49.350;20.898;2023-02-17T14:47:34;74.18;;;29.90;;
36653;SDS011;22650;49.350;20.898;2023-02-17T14:50:08;87.72;;;32.95;;
36653;SDS011;22650;49.350;20.898;2023-02-17T14:52:45;55.17;;;24.50;;
36653;SDS011;22650;49.350;20.898;2023-02-17T14:55:24;73.38;;;26.13;;
36653;SDS011;22650;49.350;20.898;2023-02-17T14:58:04;66.82;;;27.48;;
36653;SDS011;22650;49.350;20.898;2023-02-17T15:00:38;68.10;;;29.02;;
36653;SDS011;22650;49.350;20.898;2023-02-17T15:03:12;80.38;;;31.15;;
36653;SDS011;22650;49.350;20.898;2023-02-17T15:05:45;85.05;;;33.15;;
36653;SDS011;22650;49.350;20.898;2023-02-17T15:08:23;70.55;;;32.92;;
36653;SDS011;22650;49.350;20.898;2023-02-17T15:11:04;65.38;;;29.45;;
36653;SDS011;22650;49.350;20.898;2023-02-17T15:13:39;77.80;;;31.88;;
36653;SDS011;22650;49.350;20.898;2023-02-17T15:16:13;81.05;;;31.60;;
36653;SDS011;22650;49.350;20.898;2023-02-17T15:18:47;75.30;;;32.30;;